sensor_id;sensor_type;location;lat;lon;timestamp;pressure;altitude;pressure_sealevel;temperature;humidity
36726;BME280;44936;52.086;5.150;2022-10-24T00:01:16;96927.41;;;14.43;100.00
36726;BME280;44936;52.086;5.150;2022-10-24T00:03:45;96958.81;;;14.70;100.00
36726;BME280;44936;52.086;5.150;2022-10-24T00:06:11;96942.47;;;14.65;100.00
36726;BME280;44936;52.086;5.150;2022-10-24T00:08:38;96937.44;;;14.62;100.00
36726;BME280;44936;52.086;5.150;2022-10-24T00:11:09;96938.03;;;14.65;100.00
36726;BME280;44936;52.086;5.150;2022-10-24T00:13:56;96957.59;;;14.63;100.00
36726;BME280;44936;52.086;5.150;2022-10-24T00:16:57;96939.38;;;14.60;100.00
36726;BME280;44936;52.086;5.150;2022-10-24T00:19:32;96946.75;;;14.55;100.00
36726;BME280;44936;52.086;5.150;2022-10-24T00:22:01;96907.84;;;14.34;100.00
36726;BME280;44936;52.086;5.150;2022-10-24T00:24:49;96944.91;;;14.68;100.00
36726;BME280;44936;52.086;5.150;2022-10-24T00:27:14;96957.59;;;14.63;100.00
36726;BME280;44936;52.086;5.150;2022-10-24T00:29:40;96915.19;;;14.42;100.00
36726;BME280;44936;52.086;5.150;2022-10-24T00:32:08;96918.53;;;14.44;100.00
36726;BME280;44936;52.086;5.150;2022-10-24T00:34:37;96921.59;;;14.51;100.00
36726;BME280;44936;52.086;5.150;2022-10-24T00:37:03;96918.72;;;14.54;100.00
36726;BME280;44936;52.086;5.150;2022-10-24T00:39:32;96920.06;;;14.59;100.00
36726;BME280;44936;52.086;5.150;2022-10-24T00:41:58;96919.31;;;14.57;100.00
36726;BME280;44936;52.086;5.150;2022-10-24T00:44:32;96910.75;;;14.42;100.00
36726;BME280;44936;52.086;5.150;2022-10-24T00:47:02;96945.81;;;14.56;100.00
36726;BME280;44936;52.086;5.150;2022-10-24T00:49:53;96944.69;;;14.47;100.00
36726;BME280;44936;52.086;5.150;2022-10-24T00:52:20;97018.91;;;14.78;100.00
36726;BME280;44936;52.086;5.150;2022-10-24T00:54:46;97014.16;;;14.59;100.00
36726;BME280;44936;52.086;5.150;2022-10-24T00:57:19;97065.91;;;14.84;100.00
36726;BME280;44936;52.086;5.150;2022-10-24T00:59:52;97055.94;;;14.76;100.00
36726;BME280;44936;52.086;5.150;2022-10-24T01:02:19;97068.91;;;14.55;100.00
36726;BME280;44936;52.086;5.150;2022-10-24T01:04:46;97083.22;;;14.64;100.00
36726;BME280;44936;52.086;5.150;2022-10-24T01:16:14;97168.19;;;14.80;100.00
36726;BME280;44936;52.086;5.150;2022-10-24T01:18:51;97191.63;;;14.85;100.00
36726;BME280;44936;52.086;5.150;2022-10-24T01:21:44;97194.34;;;14.83;100.00
36726;BME280;44936;52.086;5.150;2022-10-24T01:24:24;97160.34;;;14.55;100.00
36726;BME280;44936;52.086;5.150;2022-10-24T01:29:45;97219.69;;;14.86;100.00
36726;BME280;44936;52.086;5.150;2022-10-24T01:34:47;97217.28;;;14.70;100.00
36726;BME280;44936;52.086;5.150;2022-10-24T01:37:35;97242.41;;;14.76;100.00
36726;BME280;44936;52.086;5.150;2022-10-24T01:40:20;97229.16;;;14.52;100.00
36726;BME280;44936;52.086;5.150;2022-10-24T01:42:48;97240.19;;;14.57;100.00
36726;BME280;44936;52.086;5.150;2022-10-24T01:45:21;97276.03;;;14.72;100.00
36726;BME280;44936;52.086;5.150;2022-10-24T01:47:52;97260.66;;;14.66;100.00
36726;BME280;44936;52.086;5.150;2022-10-24T01:50:21;97280.06;;;14.78;100.00
36726;BME280;44936;52.086;5.150;2022-10-24T01:52:54;97266.75;;;14.79;100.00
36726;BME280;44936;52.086;5.150;2022-10-24T01:55:24;97267.81;;;14.77;100.00
36726;BME280;44936;52.086;5.150;2022-10-24T01:57:54;97249.72;;;14.59;100.00
36726;BME280;44936;52.086;5.150;2022-10-24T02:00:23;97305.06;;;14.72;100.00
36726;BME280;44936;52.086;5.150;2022-10-24T02:03:29;97302.66;;;14.69;100.00
36726;BME280;44936;52.086;5.150;2022-10-24T02:05:51;97314.47;;;14.76;100.00
36726;BME280;44936;52.086;5.150;2022-10-24T02:08:25;97330.72;;;14.70;100.00
36726;BME280;44936;52.086;5.150;2022-10-24T02:11:08;97343.16;;;14.68;100.00
36726;BME280;44936;52.086;5.150;2022-10-24T02:13:50;97361.09;;;14.63;100.00
36726;BME280;44936;52.086;5.150;2022-10-24T02:16:21;97354.13;;;14.62;100.00
36726;BME280;44936;52.086;5.150;2022-10-24T02:18:50;97356.88;;;14.48;100.00
36726;BME280;44936;52.086;5.150;2022-10-24T02:24:41;97405.81;;;14.52;100.00
36726;BME280;44936;52.086;5.150;2022-10-24T02:27:20;97385.06;;;14.20;100.00
36726;BME280;44936;52.086;5.150;2022-10-24T02:30:04;97416.41;;;14.37;100.00
36726;BME280;44936;52.086;5.150;2022-10-24T02:32:35;97425.75;;;14.16;100.00
36726;BME280;44936;52.086;5.150;2022-10-24T02:35:04;97453.41;;;14.23;100.00
36726;BME280;44936;52.086;5.150;2022-10-24T02:37:38;97470.47;;;14.30;100.00
36726;BME280;44936;52.086;5.150;2022-10-24T02:40:06;97490.06;;;14.13;100.00
36726;BME280;44936;52.086;5.150;2022-10-24T02:42:36;97556.56;;;14.31;100.00
36726;BME280;44936;52.086;5.150;2022-10-24T02:45:04;97550.69;;;14.13;100.00
36726;BME280;44936;52.086;5.150;2022-10-24T02:47:41;97569.75;;;14.17;100.00
36726;BME280;44936;52.086;5.150;2022-10-24T02:50:08;97610.66;;;14.37;100.00
36726;BME280;44936;52.086;5.150;2022-10-24T02:52:37;97596.00;;;14.18;100.00
36726;BME280;44936;52.086;5.150;2022-10-24T02:55:03;97647.47;;;14.38;100.00
36726;BME280;44936;52.086;5.150;2022-10-24T02:57:29;97661.22;;;14.43;100.00
36726;BME280;44936;52.086;5.150;2022-10-24T02:59:55;97651.84;;;14.25;100.00
36726;BME280;44936;52.086;5.150;2022-10-24T03:02:21;97646.00;;;14.20;100.00
36726;BME280;44936;52.086;5.150;2022-10-24T03:04:47;97645.72;;;14.10;100.00
36726;BME280;44936;52.086;5.150;2022-10-24T03:07:14;97707.38;;;14.36;100.00
36726;BME280;44936;52.086;5.150;2022-10-24T03:09:43;97676.69;;;14.07;100.00
36726;BME280;44936;52.086;5.150;2022-10-24T03:12:12;97715.00;;;14.12;100.00
36726;BME280;44936;52.086;5.150;2022-10-24T03:14:42;97710.75;;;14.10;100.00
36726;BME280;44936;52.086;5.150;2022-10-24T03:17:08;97734.19;;;14.29;100.00
36726;BME280;44936;52.086;5.150;2022-10-24T03:19:36;97745.31;;;14.34;100.00
36726;BME280;44936;52.086;5.150;2022-10-24T03:22:02;97749.91;;;14.30;100.00
36726;BME280;44936;52.086;5.150;2022-10-24T03:24:29;97735.06;;;14.15;100.00
36726;BME280;44936;52.086;5.150;2022-10-24T03:26:55;97761.81;;;14.23;100.00
36726;BME280;44936;52.086;5.150;2022-10-24T03:29:23;97761.97;;;14.06;100.00
36726;BME280;44936;52.086;5.150;2022-10-24T03:31:49;97782.31;;;14.18;100.00
36726;BME280;44936;52.086;5.150;2022-10-24T03:34:14;97769.41;;;13.99;100.00
36726;BME280;44936;52.086;5.150;2022-10-24T03:36:49;97814.97;;;14.30;100.00
36726;BME280;44936;52.086;5.150;2022-10-24T03:39:14;97806.22;;;14.15;100.00
36726;BME280;44936;52.086;5.150;2022-10-24T03:41:45;97799.34;;;14.12;100.00
36726;BME280;44936;52.086;5.150;2022-10-24T03:44:11;97800.00;;;14.16;100.00
36726;BME280;44936;52.086;5.150;2022-10-24T03:46:36;97772.13;;;13.98;100.00
36726;BME280;44936;52.086;5.150;2022-10-24T03:49:04;97802.25;;;14.08;100.00
36726;BME280;44936;52.086;5.150;2022-10-24T03:51:34;97830.34;;;14.23;100.00
36726;BME280;44936;52.086;5.150;2022-10-24T03:54:05;97833.03;;;14.22;100.00
36726;BME280;44936;52.086;5.150;2022-10-24T03:56:32;97850.66;;;14.21;100.00
36726;BME280;44936;52.086;5.150;2022-10-24T03:58:59;97872.59;;;14.22;100.00
36726;BME280;44936;52.086;5.150;2022-10-24T04:01:24;97864.78;;;14.20;100.00
36726;BME280;44936;52.086;5.150;2022-10-24T04:03:52;97870.56;;;13.97;100.00
36726;BME280;44936;52.086;5.150;2022-10-24T04:06:28;97875.34;;;14.04;100.00
36726;BME280;44936;52.086;5.150;2022-10-24T04:08:57;97905.38;;;14.02;100.00
36726;BME280;44936;52.086;5.150;2022-10-24T04:11:26;97928.78;;;14.22;100.00
36726;BME280;44936;52.086;5.150;2022-10-24T04:13:52;97922.63;;;14.23;100.00
36726;BME280;44936;52.086;5.150;2022-10-24T04:16:20;97910.34;;;14.22;100.00
36726;BME280;44936;52.086;5.150;2022-10-24T04:18:49;97828.47;;;13.95;100.00
36726;BME280;44936;52.086;5.150;2022-10-24T04:21:15;97841.69;;;14.09;100.00
36726;BME280;44936;52.086;5.150;2022-10-24T04:23:41;97866.06;;;14.13;100.00
36726;BME280;44936;52.086;5.150;2022-10-24T04:26:17;97853.38;;;14.20;100.00
36726;BME280;44936;52.086;5.150;2022-10-24T04:28:43;97832.53;;;14.01;100.00
36726;BME280;44936;52.086;5.150;2022-10-24T04:31:12;97829.16;;;13.99;100.00
36726;BME280;44936;52.086;5.150;2022-10-24T04:41:15;97842.59;;;14.38;100.00
36726;BME280;44936;52.086;5.150;2022-10-24T04:43:40;97867.50;;;14.49;100.00
36726;BME280;44936;52.086;5.150;2022-10-24T04:46:08;97834.22;;;14.32;100.00
36726;BME280;44936;52.086;5.150;2022-10-24T05:05:45;97902.19;;;14.71;100.00
36726;BME280;44936;52.086;5.150;2022-10-24T05:08:10;97840.53;;;14.43;100.00
36726;BME280;44936;52.086;5.150;2022-10-24T05:21:02;97851.44;;;14.37;100.00
36726;BME280;44936;52.086;5.150;2022-10-24T05:26:38;97889.53;;;14.48;100.00
36726;BME280;44936;52.086;5.150;2022-10-24T05:29:03;97872.38;;;14.40;100.00
36726;BME280;44936;52.086;5.150;2022-10-24T05:31:29;97887.25;;;14.41;100.00
36726;BME280;44936;52.086;5.150;2022-10-24T05:33:58;97913.66;;;14.56;100.00
36726;BME280;44936;52.086;5.150;2022-10-24T05:39:49;97932.81;;;14.59;100.00
36726;BME280;44936;52.086;5.150;2022-10-24T05:42:17;97952.88;;;14.62;100.00
36726;BME280;44936;52.086;5.150;2022-10-24T05:44:46;97921.19;;;14.48;100.00
36726;BME280;44936;52.086;5.150;2022-10-24T05:47:25;97941.19;;;14.66;100.00
36726;BME280;44936;52.086;5.150;2022-10-24T05:49:51;97907.84;;;14.51;100.00
36726;BME280;44936;52.086;5.150;2022-10-24T05:52:22;97925.00;;;14.58;100.00
36726;BME280;44936;52.086;5.150;2022-10-24T05:54:47;97919.97;;;14.53;100.00
36726;BME280;44936;52.086;5.150;2022-10-24T05:57:16;97924.91;;;14.43;100.00
36726;BME280;44936;52.086;5.150;2022-10-24T05:59:43;97960.03;;;14.60;100.00
36726;BME280;44936;52.086;5.150;2022-10-24T06:02:21;97957.00;;;14.66;100.00
36726;BME280;44936;52.086;5.150;2022-10-24T06:05:08;97966.25;;;14.73;100.00
36726;BME280;44936;52.086;5.150;2022-10-24T06:07:44;97946.75;;;14.61;100.00
36726;BME280;44936;52.086;5.150;2022-10-24T06:10:27;97949.94;;;14.52;100.00
36726;BME280;44936;52.086;5.150;2022-10-24T06:13:14;97968.25;;;14.69;100.00
36726;BME280;44936;52.086;5.150;2022-10-24T06:19:43;97971.25;;;14.63;100.00
36726;BME280;44936;52.086;5.150;2022-10-24T06:36:25;98001.59;;;14.70;100.00
36726;BME280;44936;52.086;5.150;2022-10-24T06:39:09;98035.81;;;14.72;100.00
36726;BME280;44936;52.086;5.150;2022-10-24T07:36:47;98200.66;;;15.26;100.00
36726;BME280;44936;52.086;5.150;2022-10-24T07:39:12;98180.59;;;15.08;100.00
36726;BME280;44936;52.086;5.150;2022-10-24T07:57:14;98242.03;;;15.42;100.00
36726;BME280;44936;52.086;5.150;2022-10-24T08:00:06;98251.56;;;15.44;100.00
36726;BME280;44936;52.086;5.150;2022-10-24T08:02:33;98270.56;;;15.51;100.00
36726;BME280;44936;52.086;5.150;2022-10-24T08:05:02;98241.25;;;15.55;100.00
36726;BME280;44936;52.086;5.150;2022-10-24T08:07:45;98220.63;;;15.16;100.00
36726;BME280;44936;52.086;5.150;2022-10-24T08:10:23;98228.69;;;15.29;100.00
36726;BME280;44936;52.086;5.150;2022-10-24T08:12:48;98284.44;;;15.54;100.00
36726;BME280;44936;52.086;5.150;2022-10-24T08:15:15;98241.31;;;15.24;100.00
36726;BME280;44936;52.086;5.150;2022-10-24T08:20:18;98301.00;;;15.42;100.00
36726;BME280;44936;52.086;5.150;2022-10-24T08:22:44;98260.28;;;15.46;100.00
36726;BME280;44936;52.086;5.150;2022-10-24T08:25:12;98300.88;;;15.59;100.00
36726;BME280;44936;52.086;5.150;2022-10-24T09:25:05;98243.22;;;15.36;100.00
36726;BME280;44936;52.086;5.150;2022-10-24T09:46:42;98128.06;;;14.73;100.00
36726;BME280;44936;52.086;5.150;2022-10-24T09:53:39;98119.16;;;14.90;100.00
36726;BME280;44936;52.086;5.150;2022-10-24T09:56:43;98075.72;;;14.66;100.00
36726;BME280;44936;52.086;5.150;2022-10-24T10:02:32;98133.75;;;14.82;100.00
36726;BME280;44936;52.086;5.150;2022-10-24T10:06:12;98100.00;;;14.57;100.00
36726;BME280;44936;52.086;5.150;2022-10-24T10:08:42;98128.22;;;14.86;100.00
36726;BME280;44936;52.086;5.150;2022-10-24T10:11:26;98110.63;;;14.71;100.00
36726;BME280;44936;52.086;5.150;2022-10-24T10:13:57;98099.56;;;14.64;100.00
36726;BME280;44936;52.086;5.150;2022-10-24T10:16:28;98102.78;;;14.69;100.00
36726;BME280;44936;52.086;5.150;2022-10-24T10:19:04;98145.75;;;14.87;100.00
36726;BME280;44936;52.086;5.150;2022-10-24T10:24:36;98304.94;;;15.04;100.00
36726;BME280;44936;52.086;5.150;2022-10-24T10:29:49;98306.47;;;15.08;100.00
36726;BME280;44936;52.086;5.150;2022-10-24T10:32:31;98318.22;;;15.18;100.00
36726;BME280;44936;52.086;5.150;2022-10-24T10:35:14;98320.44;;;15.25;100.00
36726;BME280;44936;52.086;5.150;2022-10-24T10:38:17;98367.31;;;15.38;100.00
36726;BME280;44936;52.086;5.150;2022-10-24T10:41:42;98386.13;;;15.32;100.00
36726;BME280;44936;52.086;5.150;2022-10-24T10:46:39;98459.81;;;15.52;100.00
36726;BME280;44936;52.086;5.150;2022-10-24T10:57:23;98507.78;;;15.77;100.00
36726;BME280;44936;52.086;5.150;2022-10-24T11:00:33;98520.59;;;15.85;100.00
36726;BME280;44936;52.086;5.150;2022-10-24T11:06:20;98524.50;;;15.94;100.00
36726;BME280;44936;52.086;5.150;2022-10-24T11:11:33;98518.78;;;15.85;100.00
36726;BME280;44936;52.086;5.150;2022-10-24T11:14:27;98554.69;;;16.05;100.00
36726;BME280;44936;52.086;5.150;2022-10-24T11:17:02;98502.81;;;15.55;100.00
36726;BME280;44936;52.086;5.150;2022-10-24T11:23:22;98432.94;;;15.61;100.00
36726;BME280;44936;52.086;5.150;2022-10-24T11:32:13;98206.00;;;15.11;100.00
36726;BME280;44936;52.086;5.150;2022-10-24T11:34:47;98187.19;;;15.31;100.00
36726;BME280;44936;52.086;5.150;2022-10-24T11:37:24;98106.03;;;15.19;100.00
36726;BME280;44936;52.086;5.150;2022-10-24T11:40:11;98119.97;;;15.51;100.00
36726;BME280;44936;52.086;5.150;2022-10-24T11:43:14;98098.25;;;15.32;100.00
36726;BME280;44936;52.086;5.150;2022-10-24T11:46:23;98159.91;;;15.46;100.00
36726;BME280;44936;52.086;5.150;2022-10-24T11:48:56;98134.94;;;15.22;100.00
36726;BME280;44936;52.086;5.150;2022-10-24T11:54:37;98157.56;;;15.56;100.00
36726;BME280;44936;52.086;5.150;2022-10-24T11:57:25;98196.34;;;15.55;100.00
36726;BME280;44936;52.086;5.150;2022-10-24T12:00:13;98251.53;;;15.60;100.00
36726;BME280;44936;52.086;5.150;2022-10-24T12:08:52;98407.13;;;15.66;100.00
36726;BME280;44936;52.086;5.150;2022-10-24T12:17:36;98421.56;;;15.59;100.00
36726;BME280;44936;52.086;5.150;2022-10-24T12:20:12;98413.50;;;15.62;100.00
36726;BME280;44936;52.086;5.150;2022-10-24T12:22:48;98420.47;;;15.79;100.00
36726;BME280;44936;52.086;5.150;2022-10-24T12:25:35;98383.63;;;15.60;100.00
36726;BME280;44936;52.086;5.150;2022-10-24T12:28:07;98374.84;;;15.59;100.00
36726;BME280;44936;52.086;5.150;2022-10-24T12:31:18;98420.31;;;15.82;100.00
36726;BME280;44936;52.086;5.150;2022-10-24T13:11:23;97895.13;;;15.00;100.00
36726;BME280;44936;52.086;5.150;2022-10-24T13:16:42;97783.09;;;14.77;100.00
36726;BME280;44936;52.086;5.150;2022-10-24T13:19:17;97774.03;;;14.95;100.00
36726;BME280;44936;52.086;5.150;2022-10-24T13:21:55;97760.41;;;15.01;100.00
36726;BME280;44936;52.086;5.150;2022-10-24T13:24:36;97722.69;;;14.87;100.00
36726;BME280;44936;52.086;5.150;2022-10-24T13:37:26;97923.59;;;15.09;100.00
36726;BME280;44936;52.086;5.150;2022-10-24T13:39:55;98000.25;;;15.08;100.00
36726;BME280;44936;52.086;5.150;2022-10-24T13:42:32;98036.72;;;15.01;100.00
36726;BME280;44936;52.086;5.150;2022-10-24T13:45:03;98068.47;;;14.99;100.00
36726;BME280;44936;52.086;5.150;2022-10-24T13:47:41;98026.28;;;14.69;100.00
36726;BME280;44936;52.086;5.150;2022-10-24T13:50:19;98066.16;;;14.79;100.00
36726;BME280;44936;52.086;5.150;2022-10-24T13:53:14;98043.91;;;14.69;100.00
36726;BME280;44936;52.086;5.150;2022-10-24T13:55:45;98055.53;;;14.81;100.00
36726;BME280;44936;52.086;5.150;2022-10-24T13:58:18;98050.38;;;14.63;100.00
36726;BME280;44936;52.086;5.150;2022-10-24T14:00:53;98062.25;;;14.86;100.00
36726;BME280;44936;52.086;5.150;2022-10-24T14:03:24;98011.94;;;14.59;100.00
36726;BME280;44936;52.086;5.150;2022-10-24T14:05:54;98020.03;;;14.86;100.00
36726;BME280;44936;52.086;5.150;2022-10-24T14:08:29;98003.84;;;15.07;100.00
36726;BME280;44936;52.086;5.150;2022-10-24T14:11:00;97955.38;;;14.93;100.00
36726;BME280;44936;52.086;5.150;2022-10-24T14:13:29;97959.50;;;14.83;100.00
36726;BME280;44936;52.086;5.150;2022-10-24T14:16:10;97984.69;;;14.89;100.00
36726;BME280;44936;52.086;5.150;2022-10-24T14:21:41;98039.94;;;15.06;100.00
36726;BME280;44936;52.086;5.150;2022-10-24T14:24:21;98063.97;;;15.01;100.00
36726;BME280;44936;52.086;5.150;2022-10-24T14:26:48;98121.53;;;15.11;100.00
36726;BME280;44936;52.086;5.150;2022-10-24T14:29:21;98193.56;;;15.13;100.00
36726;BME280;44936;52.086;5.150;2022-10-24T14:31:54;98172.31;;;14.84;100.00
36726;BME280;44936;52.086;5.150;2022-10-24T14:34:25;98192.50;;;14.85;100.00
36726;BME280;44936;52.086;5.150;2022-10-24T14:36:51;98176.72;;;14.84;100.00
36726;BME280;44936;52.086;5.150;2022-10-24T14:39:24;98176.28;;;14.91;100.00
36726;BME280;44936;52.086;5.150;2022-10-24T14:41:51;98190.66;;;15.01;100.00
36726;BME280;44936;52.086;5.150;2022-10-24T14:44:19;98212.88;;;15.13;100.00
36726;BME280;44936;52.086;5.150;2022-10-24T14:47:35;98187.09;;;15.02;100.00
36726;BME280;44936;52.086;5.150;2022-10-24T14:49:56;98192.91;;;14.93;100.00
36726;BME280;44936;52.086;5.150;2022-10-24T14:54:55;98247.88;;;15.01;100.00
36726;BME280;44936;52.086;5.150;2022-10-24T14:57:25;98307.94;;;15.29;100.00
36726;BME280;44936;52.086;5.150;2022-10-24T14:59:54;98288.44;;;14.84;100.00
36726;BME280;44936;52.086;5.150;2022-10-24T15:02:34;98337.03;;;14.80;100.00
36726;BME280;44936;52.086;5.150;2022-10-24T15:07:45;98412.28;;;15.20;100.00
36726;BME280;44936;52.086;5.150;2022-10-24T15:13:09;98360.81;;;15.12;100.00
36726;BME280;44936;52.086;5.150;2022-10-24T15:16:02;98345.03;;;15.10;100.00
36726;BME280;44936;52.086;5.150;2022-10-24T15:18:45;98352.34;;;14.89;100.00
36726;BME280;44936;52.086;5.150;2022-10-24T15:21:18;98376.72;;;14.94;100.00
36726;BME280;44936;52.086;5.150;2022-10-24T15:23:49;98431.31;;;14.94;100.00
36726;BME280;44936;52.086;5.150;2022-10-24T15:26:36;98462.19;;;15.25;100.00
36726;BME280;44936;52.086;5.150;2022-10-24T15:31:41;98432.69;;;15.17;100.00
36726;BME280;44936;52.086;5.150;2022-10-24T15:34:21;98424.59;;;15.04;100.00
36726;BME280;44936;52.086;5.150;2022-10-24T15:37:00;98475.38;;;15.25;100.00
36726;BME280;44936;52.086;5.150;2022-10-24T15:39:31;98472.03;;;15.06;100.00
36726;BME280;44936;52.086;5.150;2022-10-24T15:41:59;98441.56;;;14.83;100.00
36726;BME280;44936;52.086;5.150;2022-10-24T15:44:29;98494.53;;;15.13;100.00
36726;BME280;44936;52.086;5.150;2022-10-24T15:47:09;98472.19;;;15.02;100.00
36726;BME280;44936;52.086;5.150;2022-10-24T15:49:38;98448.13;;;14.91;100.00
36726;BME280;44936;52.086;5.150;2022-10-24T15:52:19;98442.19;;;14.88;100.00
36726;BME280;44936;52.086;5.150;2022-10-24T15:54:51;98432.66;;;14.68;100.00
36726;BME280;44936;52.086;5.150;2022-10-24T15:57:19;98464.72;;;14.78;100.00
36726;BME280;44936;52.086;5.150;2022-10-24T15:59:45;98489.69;;;14.88;100.00
36726;BME280;44936;52.086;5.150;2022-10-24T16:02:21;98485.09;;;14.91;100.00
36726;BME280;44936;52.086;5.150;2022-10-24T16:04:47;98496.38;;;14.78;100.00
36726;BME280;44936;52.086;5.150;2022-10-24T16:07:15;98448.19;;;14.57;100.00
36726;BME280;44936;52.086;5.150;2022-10-24T16:09:42;98457.28;;;14.68;100.00
36726;BME280;44936;52.086;5.150;2022-10-24T16:12:11;98447.56;;;14.69;100.00
36726;BME280;44936;52.086;5.150;2022-10-24T16:14:41;98445.25;;;14.45;100.00
36726;BME280;44936;52.086;5.150;2022-10-24T16:17:06;98428.41;;;14.48;100.00
36726;BME280;44936;52.086;5.150;2022-10-24T16:19:33;98409.22;;;14.44;100.00
36726;BME280;44936;52.086;5.150;2022-10-24T16:22:11;98452.66;;;14.72;100.00
36726;BME280;44936;52.086;5.150;2022-10-24T16:24:37;98411.47;;;14.35;100.00
36726;BME280;44936;52.086;5.150;2022-10-24T16:27:04;98443.81;;;14.38;100.00
36726;BME280;44936;52.086;5.150;2022-10-24T16:33:16;98397.63;;;14.31;100.00
36726;BME280;44936;52.086;5.150;2022-10-24T16:54:01;98352.94;;;14.28;100.00
36726;BME280;44936;52.086;5.150;2022-10-24T16:56:29;98371.66;;;14.39;100.00
36726;BME280;44936;52.086;5.150;2022-10-24T16:59:15;98307.13;;;14.13;100.00
36726;BME280;44936;52.086;5.150;2022-10-24T17:01:45;98287.81;;;14.13;100.00
36726;BME280;44936;52.086;5.150;2022-10-24T17:04:20;98254.72;;;14.07;100.00
36726;BME280;44936;52.086;5.150;2022-10-24T17:06:55;98210.84;;;14.06;100.00
36726;BME280;44936;52.086;5.150;2022-10-24T17:09:23;98168.91;;;14.02;100.00
36726;BME280;44936;52.086;5.150;2022-10-24T17:11:48;98135.59;;;14.01;100.00
36726;BME280;44936;52.086;5.150;2022-10-24T17:14:23;98126.16;;;14.12;100.00
36726;BME280;44936;52.086;5.150;2022-10-24T17:17:02;98054.41;;;13.92;100.00
36726;BME280;44936;52.086;5.150;2022-10-24T17:19:28;98028.16;;;14.06;100.00
36726;BME280;44936;52.086;5.150;2022-10-24T17:21:55;97936.59;;;13.78;100.00
36726;BME280;44936;52.086;5.150;2022-10-24T17:24:25;97951.44;;;14.10;100.00
36726;BME280;44936;52.086;5.150;2022-10-24T17:26:55;97899.34;;;13.70;100.00
36726;BME280;44936;52.086;5.150;2022-10-24T17:29:26;97935.41;;;13.83;100.00
36726;BME280;44936;52.086;5.150;2022-10-24T17:32:00;97944.16;;;13.84;100.00
36726;BME280;44936;52.086;5.150;2022-10-24T17:34:29;97963.63;;;13.97;100.00
36726;BME280;44936;52.086;5.150;2022-10-24T17:37:14;97967.22;;;13.96;100.00
36726;BME280;44936;52.086;5.150;2022-10-24T17:40:05;97897.19;;;13.76;100.00
36726;BME280;44936;52.086;5.150;2022-10-24T17:42:36;97872.59;;;13.62;100.00
36726;BME280;44936;52.086;5.150;2022-10-24T17:45:18;97923.44;;;13.78;100.00
36726;BME280;44936;52.086;5.150;2022-10-24T17:48:14;97877.00;;;13.61;100.00
36726;BME280;44936;52.086;5.150;2022-10-24T17:50:43;97892.63;;;13.64;100.00
36726;BME280;44936;52.086;5.150;2022-10-24T17:53:15;97928.97;;;13.73;100.00
36726;BME280;44936;52.086;5.150;2022-10-24T17:56:04;97896.84;;;13.51;100.00
36726;BME280;44936;52.086;5.150;2022-10-24T17:59:06;97943.41;;;13.66;100.00
36726;BME280;44936;52.086;5.150;2022-10-24T18:01:37;97955.56;;;13.69;100.00
36726;BME280;44936;52.086;5.150;2022-10-24T18:04:21;97933.47;;;13.55;100.00
36726;BME280;44936;52.086;5.150;2022-10-24T18:06:46;97945.38;;;13.63;100.00
36726;BME280;44936;52.086;5.150;2022-10-24T18:09:21;97979.44;;;13.81;100.00
36726;BME280;44936;52.086;5.150;2022-10-24T18:11:54;97998.75;;;13.98;100.00
36726;BME280;44936;52.086;5.150;2022-10-24T18:14:25;97973.34;;;13.81;100.00
36726;BME280;44936;52.086;5.150;2022-10-24T18:16:53;98006.03;;;14.08;100.00
36726;BME280;44936;52.086;5.150;2022-10-24T18:19:31;97959.78;;;14.03;100.00
36726;BME280;44936;52.086;5.150;2022-10-24T18:21:59;97960.59;;;13.89;100.00
36726;BME280;44936;52.086;5.150;2022-10-24T18:24:30;97986.66;;;13.94;100.00
36726;BME280;44936;52.086;5.150;2022-10-24T18:27:06;98036.72;;;14.09;100.00
36726;BME280;44936;52.086;5.150;2022-10-24T18:29:34;98012.44;;;13.88;100.00
36726;BME280;44936;52.086;5.150;2022-10-24T18:32:00;98081.81;;;14.05;100.00
36726;BME280;44936;52.086;5.150;2022-10-24T18:34:26;98080.66;;;13.93;100.00
36726;BME280;44936;52.086;5.150;2022-10-24T18:36:52;98096.56;;;13.92;100.00
36726;BME280;44936;52.086;5.150;2022-10-24T18:39:17;98109.84;;;13.90;100.00
36726;BME280;44936;52.086;5.150;2022-10-24T18:47:18;98222.13;;;14.26;100.00
36726;BME280;44936;52.086;5.150;2022-10-24T18:50:04;98205.31;;;14.11;100.00
36726;BME280;44936;52.086;5.150;2022-10-24T18:53:04;98230.13;;;14.24;100.00
36726;BME280;44936;52.086;5.150;2022-10-24T18:55:31;98190.41;;;13.94;100.00
36726;BME280;44936;52.086;5.150;2022-10-24T18:58:09;98228.91;;;14.14;100.00
36726;BME280;44936;52.086;5.150;2022-10-24T19:00:38;98243.28;;;14.24;100.00
36726;BME280;44936;52.086;5.150;2022-10-24T19:03:29;98176.88;;;13.84;100.00
36726;BME280;44936;52.086;5.150;2022-10-24T19:06:27;98238.81;;;14.09;100.00
36726;BME280;44936;52.086;5.150;2022-10-24T19:08:56;98235.50;;;14.05;100.00
36726;BME280;44936;52.086;5.150;2022-10-24T19:11:22;98188.50;;;13.80;100.00
36726;BME280;44936;52.086;5.150;2022-10-24T19:14:02;98193.06;;;13.77;100.00
36726;BME280;44936;52.086;5.150;2022-10-24T19:16:32;98234.19;;;14.14;100.00
36726;BME280;44936;52.086;5.150;2022-10-24T19:19:01;98195.31;;;13.84;100.00
36726;BME280;44936;52.086;5.150;2022-10-24T19:21:37;98177.25;;;13.77;100.00
36726;BME280;44936;52.086;5.150;2022-10-24T19:24:03;98216.16;;;13.89;100.00
36726;BME280;44936;52.086;5.150;2022-10-24T19:26:33;98266.44;;;14.02;100.00
36726;BME280;44936;52.086;5.150;2022-10-24T19:29:09;98234.38;;;13.76;100.00
36726;BME280;44936;52.086;5.150;2022-10-24T19:31:55;98246.13;;;13.86;100.00
36726;BME280;44936;52.086;5.150;2022-10-24T19:34:24;98221.94;;;13.63;100.00
36726;BME280;44936;52.086;5.150;2022-10-24T19:36:54;98209.81;;;13.58;100.00
36726;BME280;44936;52.086;5.150;2022-10-24T19:39:25;98237.47;;;13.67;100.00